sensor_id;sensor_type;location;lat;lon;timestamp;P1;durP1;ratioP1;P2;durP2;ratioP2
12912;SDS011;6524;51.368;11.984;2022-08-19T04:02:06;33.05;;;29.45;;
12912;SDS011;6524;51.368;11.984;2022-08-19T04:07:09;34.85;;;31.35;;
12912;SDS011;6524;51.368;11.984;2022-08-19T04:12:11;32.70;;;29.45;;
12912;SDS011;6524;51.368;11.984;2022-08-19T04:17:11;35.30;;;31.55;;
12912;SDS011;6524;51.368;11.984;2022-08-19T04:22:14;35.85;;;32.05;;
12912;SDS011;6524;51.368;11.984;2022-08-19T04:27:14;35.42;;;31.92;;
12912;SDS011;6524;51.368;11.984;2022-08-19T04:32:16;35.75;;;31.75;;
12912;SDS011;6524;51.368;11.984;2022-08-19T04:37:16;36.60;;;32.60;;
12912;SDS011;6524;51.368;11.984;2022-08-19T04:42:17;35.95;;;32.05;;
12912;SDS011;6524;51.368;11.984;2022-08-19T04:47:37;35.70;;;31.98;;
12912;SDS011;6524;51.368;11.984;2022-08-19T04:52:39;34.95;;;31.20;;
12912;SDS011;6524;51.368;11.984;2022-08-19T04:57:42;33.67;;;30.02;;
12912;SDS011;6524;51.368;11.984;2022-08-19T05:02:42;34.10;;;30.53;;
12912;SDS011;6524;51.368;11.984;2022-08-19T05:07:43;33.38;;;29.98;;
12912;SDS011;6524;51.368;11.984;2022-08-19T05:12:43;33.15;;;29.67;;
12912;SDS011;6524;51.368;11.984;2022-08-19T05:17:44;31.75;;;28.55;;
12912;SDS011;6524;51.368;11.984;2022-08-19T05:23:04;30.30;;;27.20;;
12912;SDS011;6524;51.368;11.984;2022-08-19T05:28:04;29.02;;;26.17;;
12912;SDS011;6524;51.368;11.984;2022-08-19T05:33:04;30.55;;;27.35;;
12912;SDS011;6524;51.368;11.984;2022-08-19T05:38:05;31.00;;;27.90;;
12912;SDS011;6524;51.368;11.984;2022-08-19T05:43:09;27.80;;;25.00;;
12912;SDS011;6524;51.368;11.984;2022-08-19T05:48:10;29.25;;;26.30;;
12912;SDS011;6524;51.368;11.984;2022-08-19T05:53:11;29.80;;;24.65;;
12912;SDS011;6524;51.368;11.984;2022-08-19T05:58:12;25.85;;;22.67;;
12912;SDS011;6524;51.368;11.984;2022-08-19T06:03:12;24.50;;;21.88;;
12912;SDS011;6524;51.368;11.984;2022-08-19T06:08:12;24.43;;;21.93;;
12912;SDS011;6524;51.368;11.984;2022-08-19T06:13:12;24.58;;;20.98;;
12912;SDS011;6524;51.368;11.984;2022-08-19T06:18:13;22.23;;;19.42;;
12912;SDS011;6524;51.368;11.984;2022-08-19T06:23:14;21.88;;;19.70;;
12912;SDS011;6524;51.368;11.984;2022-08-19T06:28:14;21.10;;;18.88;;
12912;SDS011;6524;51.368;11.984;2022-08-19T06:33:15;19.03;;;17.07;;
12912;SDS011;6524;51.368;11.984;2022-08-19T06:38:15;18.27;;;16.38;;
12912;SDS011;6524;51.368;11.984;2022-08-19T06:43:15;18.55;;;16.65;;
12912;SDS011;6524;51.368;11.984;2022-08-19T06:48:16;18.15;;;16.30;;
12912;SDS011;6524;51.368;11.984;2022-08-19T06:53:16;19.25;;;17.35;;
12912;SDS011;6524;51.368;11.984;2022-08-19T06:58:19;19.67;;;17.50;;
12912;SDS011;6524;51.368;11.984;2022-08-19T07:03:19;18.60;;;16.58;;
12912;SDS011;6524;51.368;11.984;2022-08-19T07:08:21;18.70;;;16.88;;
12912;SDS011;6524;51.368;11.984;2022-08-19T07:13:21;18.48;;;16.58;;
12912;SDS011;6524;51.368;11.984;2022-08-19T07:18:22;18.95;;;16.83;;
12912;SDS011;6524;51.368;11.984;2022-08-19T07:23:22;17.50;;;15.88;;
12912;SDS011;6524;51.368;11.984;2022-08-19T07:28:23;18.52;;;16.73;;
12912;SDS011;6524;51.368;11.984;2022-08-19T07:33:23;18.40;;;16.58;;
12912;SDS011;6524;51.368;11.984;2022-08-19T07:38:24;18.38;;;16.42;;
12912;SDS011;6524;51.368;11.984;2022-08-19T07:43:24;17.55;;;15.82;;
12912;SDS011;6524;51.368;11.984;2022-08-19T07:48:27;18.85;;;16.95;;
12912;SDS011;6524;51.368;11.984;2022-08-19T07:53:29;19.48;;;16.58;;
12912;SDS011;6524;51.368;11.984;2022-08-19T07:58:32;19.20;;;16.40;;
12912;SDS011;6524;51.368;11.984;2022-08-19T08:03:35;18.55;;;16.58;;
12912;SDS011;6524;51.368;11.984;2022-08-19T08:08:55;17.13;;;15.18;;
12912;SDS011;6524;51.368;11.984;2022-08-19T08:14:11;18.23;;;16.38;;
12912;SDS011;6524;51.368;11.984;2022-08-19T08:19:13;18.40;;;16.52;;
12912;SDS011;6524;51.368;11.984;2022-08-19T08:24:15;18.48;;;16.48;;
12912;SDS011;6524;51.368;11.984;2022-08-19T08:29:16;18.38;;;15.75;;
12912;SDS011;6524;51.368;11.984;2022-08-19T08:34:16;17.73;;;16.02;;
12912;SDS011;6524;51.368;11.984;2022-08-19T08:39:18;17.73;;;15.85;;
12912;SDS011;6524;51.368;11.984;2022-08-19T08:44:21;17.95;;;15.98;;
12912;SDS011;6524;51.368;11.984;2022-08-19T08:49:55;17.63;;;15.75;;
12912;SDS011;6524;51.368;11.984;2022-08-19T08:55:05;15.80;;;14.25;;
12912;SDS011;6524;51.368;11.984;2022-08-19T09:00:15;17.00;;;15.40;;
12912;SDS011;6524;51.368;11.984;2022-08-19T09:05:21;17.10;;;15.38;;
12912;SDS011;6524;51.368;11.984;2022-08-19T09:10:28;16.25;;;14.55;;
12912;SDS011;6524;51.368;11.984;2022-08-19T09:15:42;16.33;;;14.70;;
12912;SDS011;6524;51.368;11.984;2022-08-19T09:20:47;16.15;;;14.55;;
12912;SDS011;6524;51.368;11.984;2022-08-19T09:25:48;16.35;;;14.65;;
12912;SDS011;6524;51.368;11.984;2022-08-19T09:30:48;16.00;;;14.15;;
12912;SDS011;6524;51.368;11.984;2022-08-19T09:36:00;16.48;;;14.77;;
12912;SDS011;6524;51.368;11.984;2022-08-19T09:41:04;15.77;;;14.23;;
12912;SDS011;6524;51.368;11.984;2022-08-19T09:46:06;15.35;;;13.85;;
12912;SDS011;6524;51.368;11.984;2022-08-19T09:51:10;15.90;;;14.25;;
12912;SDS011;6524;51.368;11.984;2022-08-19T09:56:13;15.30;;;13.77;;
12912;SDS011;6524;51.368;11.984;2022-08-19T10:01:17;14.15;;;12.80;;
12912;SDS011;6524;51.368;11.984;2022-08-19T10:06:23;13.98;;;12.63;;
12912;SDS011;6524;51.368;11.984;2022-08-19T10:11:26;13.93;;;12.52;;
12912;SDS011;6524;51.368;11.984;2022-08-19T10:16:27;13.18;;;11.85;;
12912;SDS011;6524;51.368;11.984;2022-08-19T10:21:30;13.57;;;12.27;;
12912;SDS011;6524;51.368;11.984;2022-08-19T10:26:39;14.13;;;12.73;;
12912;SDS011;6524;51.368;11.984;2022-08-19T10:31:47;13.98;;;12.68;;
12912;SDS011;6524;51.368;11.984;2022-08-19T10:36:48;15.10;;;13.70;;
12912;SDS011;6524;51.368;11.984;2022-08-19T10:41:48;13.60;;;12.27;;
12912;SDS011;6524;51.368;11.984;2022-08-19T10:46:48;13.98;;;12.57;;
12912;SDS011;6524;51.368;11.984;2022-08-19T10:51:49;13.98;;;12.55;;
12912;SDS011;6524;51.368;11.984;2022-08-19T10:57:24;14.68;;;13.35;;
12912;SDS011;6524;51.368;11.984;2022-08-19T11:02:29;14.18;;;12.82;;
12912;SDS011;6524;51.368;11.984;2022-08-19T11:07:29;14.60;;;13.00;;
12912;SDS011;6524;51.368;11.984;2022-08-19T11:12:29;13.07;;;11.90;;
12912;SDS011;6524;51.368;11.984;2022-08-19T11:17:30;12.88;;;11.68;;
12912;SDS011;6524;51.368;11.984;2022-08-19T11:22:31;13.73;;;12.52;;
12912;SDS011;6524;51.368;11.984;2022-08-19T11:27:32;12.63;;;11.43;;
12912;SDS011;6524;51.368;11.984;2022-08-19T11:32:33;13.07;;;11.88;;
12912;SDS011;6524;51.368;11.984;2022-08-19T11:37:34;12.07;;;10.88;;
12912;SDS011;6524;51.368;11.984;2022-08-19T11:42:37;10.02;;;9.02;;
12912;SDS011;6524;51.368;11.984;2022-08-19T11:47:56;11.43;;;10.27;;
12912;SDS011;6524;51.368;11.984;2022-08-19T11:52:57;11.27;;;10.27;;
12912;SDS011;6524;51.368;11.984;2022-08-19T11:57:57;11.30;;;10.20;;
12912;SDS011;6524;51.368;11.984;2022-08-19T12:02:57;9.57;;;8.68;;
12912;SDS011;6524;51.368;11.984;2022-08-19T12:07:58;10.57;;;9.57;;
12912;SDS011;6524;51.368;11.984;2022-08-19T12:12:58;10.30;;;9.40;;
12912;SDS011;6524;51.368;11.984;2022-08-19T12:17:59;9.43;;;8.50;;
12912;SDS011;6524;51.368;11.984;2022-08-19T12:22:59;9.87;;;8.97;;
12912;SDS011;6524;51.368;11.984;2022-08-19T12:28:00;10.33;;;9.47;;
12912;SDS011;6524;51.368;11.984;2022-08-19T12:33:00;10.05;;;9.15;;
12912;SDS011;6524;51.368;11.984;2022-08-19T12:38:01;10.88;;;9.85;;
12912;SDS011;6524;51.368;11.984;2022-08-19T12:43:02;10.88;;;9.77;;
12912;SDS011;6524;51.368;11.984;2022-08-19T12:48:03;10.70;;;9.70;;
12912;SDS011;6524;51.368;11.984;2022-08-19T12:53:04;11.23;;;10.18;;
12912;SDS011;6524;51.368;11.984;2022-08-19T12:58:05;11.10;;;10.05;;
12912;SDS011;6524;51.368;11.984;2022-08-19T13:03:05;11.43;;;10.33;;
12912;SDS011;6524;51.368;11.984;2022-08-19T13:08:05;10.30;;;9.40;;
12912;SDS011;6524;51.368;11.984;2022-08-19T13:13:06;10.27;;;9.35;;
12912;SDS011;6524;51.368;11.984;2022-08-19T13:18:09;11.45;;;10.38;;
12912;SDS011;6524;51.368;11.984;2022-08-19T13:23:10;11.00;;;10.00;;
12912;SDS011;6524;51.368;11.984;2022-08-19T13:28:10;12.83;;;11.63;;
12912;SDS011;6524;51.368;11.984;2022-08-19T13:33:11;12.85;;;11.55;;
12912;SDS011;6524;51.368;11.984;2022-08-19T13:38:11;11.40;;;10.40;;
12912;SDS011;6524;51.368;11.984;2022-08-19T13:43:13;11.00;;;10.00;;
12912;SDS011;6524;51.368;11.984;2022-08-19T13:48:13;12.55;;;11.40;;
12912;SDS011;6524;51.368;11.984;2022-08-19T13:53:14;13.13;;;11.93;;
12912;SDS011;6524;51.368;11.984;2022-08-19T13:58:15;14.27;;;12.88;;
12912;SDS011;6524;51.368;11.984;2022-08-19T14:03:15;14.90;;;13.43;;
12912;SDS011;6524;51.368;11.984;2022-08-19T14:08:16;15.38;;;13.77;;
12912;SDS011;6524;51.368;11.984;2022-08-19T14:13:19;15.35;;;13.85;;
12912;SDS011;6524;51.368;11.984;2022-08-19T14:18:21;15.35;;;13.80;;
12912;SDS011;6524;51.368;11.984;2022-08-19T14:23:21;14.60;;;13.10;;
12912;SDS011;6524;51.368;11.984;2022-08-19T14:28:22;14.43;;;12.93;;
12912;SDS011;6524;51.368;11.984;2022-08-19T14:33:22;13.48;;;12.18;;
12912;SDS011;6524;51.368;11.984;2022-08-19T14:38:23;13.80;;;12.57;;
12912;SDS011;6524;51.368;11.984;2022-08-19T14:43:23;13.50;;;12.10;;
12912;SDS011;6524;51.368;11.984;2022-08-19T14:48:23;14.45;;;13.05;;
12912;SDS011;6524;51.368;11.984;2022-08-19T14:53:24;12.93;;;11.70;;
12912;SDS011;6524;51.368;11.984;2022-08-19T14:58:25;12.77;;;11.45;;
12912;SDS011;6524;51.368;11.984;2022-08-19T15:03:26;12.27;;;11.07;;
12912;SDS011;6524;51.368;11.984;2022-08-19T15:08:29;11.95;;;10.75;;
12912;SDS011;6524;51.368;11.984;2022-08-19T15:13:30;12.25;;;11.20;;
12912;SDS011;6524;51.368;11.984;2022-08-19T15:18:31;11.13;;;10.20;;
12912;SDS011;6524;51.368;11.984;2022-08-19T15:23:32;10.52;;;9.63;;
12912;SDS011;6524;51.368;11.984;2022-08-19T15:28:33;11.32;;;10.32;;
12912;SDS011;6524;51.368;11.984;2022-08-19T15:33:35;10.60;;;9.68;;
12912;SDS011;6524;51.368;11.984;2022-08-19T15:38:41;10.95;;;9.93;;
12912;SDS011;6524;51.368;11.984;2022-08-19T15:43:42;11.95;;;10.68;;
12912;SDS011;6524;51.368;11.984;2022-08-19T15:48:43;11.30;;;10.27;;
12912;SDS011;6524;51.368;11.984;2022-08-19T15:53:44;11.23;;;10.23;;
12912;SDS011;6524;51.368;11.984;2022-08-19T15:58:45;12.10;;;11.10;;
12912;SDS011;6524;51.368;11.984;2022-08-19T16:04:04;11.82;;;10.75;;
12912;SDS011;6524;51.368;11.984;2022-08-19T16:09:24;11.85;;;10.82;;
12912;SDS011;6524;51.368;11.984;2022-08-19T16:14:28;11.18;;;10.18;;
12912;SDS011;6524;51.368;11.984;2022-08-19T16:19:34;10.75;;;9.80;;
12912;SDS011;6524;51.368;11.984;2022-08-19T16:24:35;10.27;;;9.23;;
12912;SDS011;6524;51.368;11.984;2022-08-19T16:29:35;10.32;;;9.52;;
12912;SDS011;6524;51.368;11.984;2022-08-19T16:34:36;11.00;;;9.97;;
12912;SDS011;6524;51.368;11.984;2022-08-19T16:39:40;10.38;;;9.40;;
12912;SDS011;6524;51.368;11.984;2022-08-19T16:44:42;10.60;;;9.65;;
12912;SDS011;6524;51.368;11.984;2022-08-19T16:49:44;9.93;;;9.05;;
12912;SDS011;6524;51.368;11.984;2022-08-19T16:54:45;10.20;;;9.30;;
12912;SDS011;6524;51.368;11.984;2022-08-19T16:59:46;9.77;;;8.82;;
12912;SDS011;6524;51.368;11.984;2022-08-19T17:04:47;10.43;;;9.50;;
12912;SDS011;6524;51.368;11.984;2022-08-19T17:09:48;10.13;;;9.23;;
12912;SDS011;6524;51.368;11.984;2022-08-19T17:14:49;10.57;;;9.68;;
12912;SDS011;6524;51.368;11.984;2022-08-19T17:19:50;10.30;;;9.40;;
12912;SDS011;6524;51.368;11.984;2022-08-19T17:24:50;9.95;;;9.05;;
12912;SDS011;6524;51.368;11.984;2022-08-19T17:29:51;10.40;;;9.50;;
12912;SDS011;6524;51.368;11.984;2022-08-19T17:34:54;10.75;;;9.75;;
12912;SDS011;6524;51.368;11.984;2022-08-19T17:39:55;10.07;;;9.23;;
12912;SDS011;6524;51.368;11.984;2022-08-19T17:44:55;10.77;;;9.63;;
12912;SDS011;6524;51.368;11.984;2022-08-19T17:49:58;10.43;;;9.43;;
12912;SDS011;6524;51.368;11.984;2022-08-19T17:54:59;11.45;;;10.25;;
12912;SDS011;6524;51.368;11.984;2022-08-19T17:59:59;11.85;;;10.50;;
12912;SDS011;6524;51.368;11.984;2022-08-19T18:05:02;10.30;;;9.40;;
12912;SDS011;6524;51.368;11.984;2022-08-19T18:10:03;10.40;;;9.48;;
12912;SDS011;6524;51.368;11.984;2022-08-19T18:15:05;11.90;;;10.65;;
12912;SDS011;6524;51.368;11.984;2022-08-19T18:20:07;12.35;;;11.13;;
12912;SDS011;6524;51.368;11.984;2022-08-19T18:25:12;12.13;;;11.13;;
12912;SDS011;6524;51.368;11.984;2022-08-19T18:30:18;12.18;;;10.98;;
12912;SDS011;6524;51.368;11.984;2022-08-19T18:35:20;14.35;;;12.93;;
12912;SDS011;6524;51.368;11.984;2022-08-19T18:40:26;12.25;;;11.05;;
12912;SDS011;6524;51.368;11.984;2022-08-19T18:45:46;13.00;;;11.88;;
12912;SDS011;6524;51.368;11.984;2022-08-19T18:51:06;12.60;;;11.30;;
12912;SDS011;6524;51.368;11.984;2022-08-19T18:56:08;12.02;;;10.93;;
12912;SDS011;6524;51.368;11.984;2022-08-19T19:06:15;12.18;;;11.05;;
12912;SDS011;6524;51.368;11.984;2022-08-19T19:11:22;12.13;;;11.07;;
12912;SDS011;6524;51.368;11.984;2022-08-19T19:16:25;12.38;;;11.10;;
12912;SDS011;6524;51.368;11.984;2022-08-19T19:21:25;12.70;;;11.52;;
12912;SDS011;6524;51.368;11.984;2022-08-19T19:26:26;13.82;;;12.27;;
12912;SDS011;6524;51.368;11.984;2022-08-19T19:31:27;12.32;;;11.23;;
12912;SDS011;6524;51.368;11.984;2022-08-19T19:36:27;12.15;;;10.95;;
12912;SDS011;6524;51.368;11.984;2022-08-19T19:41:28;12.73;;;11.57;;
12912;SDS011;6524;51.368;11.984;2022-08-19T19:46:29;12.18;;;11.10;;
12912;SDS011;6524;51.368;11.984;2022-08-19T19:51:31;12.50;;;11.25;;
12912;SDS011;6524;51.368;11.984;2022-08-19T19:56:32;12.93;;;11.73;;
12912;SDS011;6524;51.368;11.984;2022-08-19T20:01:33;14.32;;;12.93;;
12912;SDS011;6524;51.368;11.984;2022-08-19T20:06:34;14.80;;;13.30;;
12912;SDS011;6524;51.368;11.984;2022-08-19T20:16:40;14.02;;;12.73;;
12912;SDS011;6524;51.368;11.984;2022-08-19T20:21:42;14.45;;;12.80;;
12912;SDS011;6524;51.368;11.984;2022-08-19T20:26:44;14.30;;;12.90;;
12912;SDS011;6524;51.368;11.984;2022-08-19T20:31:46;14.73;;;13.23;;
12912;SDS011;6524;51.368;11.984;2022-08-19T20:36:47;14.15;;;12.85;;
12912;SDS011;6524;51.368;11.984;2022-08-19T20:41:48;14.27;;;12.88;;
12912;SDS011;6524;51.368;11.984;2022-08-19T20:46:48;14.60;;;13.20;;
12912;SDS011;6524;51.368;11.984;2022-08-19T20:51:48;15.38;;;13.77;;
12912;SDS011;6524;51.368;11.984;2022-08-19T20:56:49;15.93;;;13.00;;
12912;SDS011;6524;51.368;11.984;2022-08-19T21:01:50;15.25;;;13.82;;
12912;SDS011;6524;51.368;11.984;2022-08-19T21:06:50;14.00;;;12.70;;
12912;SDS011;6524;51.368;11.984;2022-08-19T21:11:51;13.02;;;11.68;;
12912;SDS011;6524;51.368;11.984;2022-08-19T21:16:52;14.02;;;12.68;;
12912;SDS011;6524;51.368;11.984;2022-08-19T21:21:53;14.93;;;13.35;;
12912;SDS011;6524;51.368;11.984;2022-08-19T21:26:53;13.93;;;12.63;;
12912;SDS011;6524;51.368;11.984;2022-08-19T21:31:54;14.27;;;12.75;;
12912;SDS011;6524;51.368;11.984;2022-08-19T21:36:54;14.43;;;13.02;;
12912;SDS011;6524;51.368;11.984;2022-08-19T21:41:54;14.90;;;13.50;;
12912;SDS011;6524;51.368;11.984;2022-08-19T21:46:55;16.25;;;14.73;;
12912;SDS011;6524;51.368;11.984;2022-08-19T21:51:56;17.88;;;15.05;;
12912;SDS011;6524;51.368;11.984;2022-08-19T21:56:57;16.17;;;14.57;;
12912;SDS011;6524;51.368;11.984;2022-08-19T22:01:57;15.93;;;14.27;;
12912;SDS011;6524;51.368;11.984;2022-08-19T22:06:58;16.25;;;14.60;;
12912;SDS011;6524;51.368;11.984;2022-08-19T22:11:58;16.13;;;14.43;;
12912;SDS011;6524;51.368;11.984;2022-08-19T22:16:59;16.60;;;14.90;;
12912;SDS011;6524;51.368;11.984;2022-08-19T22:22:00;16.98;;;15.18;;
12912;SDS011;6524;51.368;11.984;2022-08-19T22:27:00;15.73;;;14.18;;
12912;SDS011;6524;51.368;11.984;2022-08-19T22:32:01;16.98;;;15.27;;
12912;SDS011;6524;51.368;11.984;2022-08-19T22:37:02;17.65;;;15.82;;
12912;SDS011;6524;51.368;11.984;2022-08-19T22:42:02;17.45;;;15.45;;
12912;SDS011;6524;51.368;11.984;2022-08-19T22:47:02;16.38;;;14.68;;
12912;SDS011;6524;51.368;11.984;2022-08-19T22:52:03;17.13;;;15.52;;
12912;SDS011;6524;51.368;11.984;2022-08-19T22:57:19;16.15;;;14.50;;
12912;SDS011;6524;51.368;11.984;2022-08-19T23:02:22;17.30;;;15.50;;
12912;SDS011;6524;51.368;11.984;2022-08-19T23:07:25;16.98;;;15.18;;
12912;SDS011;6524;51.368;11.984;2022-08-19T23:12:26;17.90;;;16.00;;
12912;SDS011;6524;51.368;11.984;2022-08-19T23:17:33;16.80;;;15.00;;
12912;SDS011;6524;51.368;11.984;2022-08-19T23:22:36;17.90;;;16.00;;
12912;SDS011;6524;51.368;11.984;2022-08-19T23:27:37;17.60;;;15.70;;
12912;SDS011;6524;51.368;11.984;2022-08-19T23:33:00;17.20;;;15.32;;
12912;SDS011;6524;51.368;11.984;2022-08-19T23:38:04;17.83;;;15.93;;
12912;SDS011;6524;51.368;11.984;2022-08-19T23:43:06;17.67;;;15.82;;
12912;SDS011;6524;51.368;11.984;2022-08-19T23:48:08;17.92;;;16.02;;
12912;SDS011;6524;51.368;11.984;2022-08-19T23:53:09;17.70;;;15.80;;
12912;SDS011;6524;51.368;11.984;2022-08-19T23:58:10;17.05;;;15.23;;
